Terminal Aerodrome Forecast
Issued by NWS Paducah, KY

Home | Current Version | Previous Version | Text Only | Print | Product List | Glossary On
Versions: 1 2 3 4 5 6 7 8 9 10 11 12 13 14 15
000
FTUS43 KPAH 030520
TAFEVV
TAF
KEVV 030520Z 0306/0406 00000KT 3SM BR MIFG SKC
      TEMPO 0307/0311 1SM BR
     FM031330 VRB03KT P6SM SCT040
     FM040100 00000KT P6SM SKC=

USA.gov is the U.S. government's official web portal to all federal, state and local government web resources and services.